Time;durP1;ratioP1;P1;durP2;ratioP2;P2;SDS_P1;SDS_P2;PMS_P1;PMS_P2;Temp;Humidity;BMP_temperature;BMP_pressure;BME280_temperature;BME280_humidity;BME280_pressure;Samples;Min_cycle;Max_cycle;Signal;HPM_P1;HPM_P2
2022/05/22 00:00:50;;;;;;;3.65;3.35;;;;;;;22.80;42.23;94283.97;5091935;28;20232;-80
2022/05/22 00:03:17;;;;;;;5.32;3.53;;;;;;;23.51;42.24;94400.50;5091732;28;20208;-81
2022/05/22 00:05:44;;;;;;;6.57;3.60;;;;;;;23.60;42.10;94416.66;5092289;28;20204;-82
2022/05/22 00:08:11;;;;;;;4.20;3.53;;;;;;;23.34;42.08;94378.69;5092116;28;20197;-80
2022/05/22 00:10:38;;;;;;;4.30;3.90;;;;;;;23.58;42.18;94416.09;5091956;28;20669;-80
2022/05/22 00:13:07;;;;;;;4.40;3.80;;;;;;;23.56;42.33;94412.09;5091961;28;20209;-83
2022/05/22 00:15:37;;;;;;;3.72;3.42;;;;;;;23.43;42.32;94394.81;5091957;28;20217;-82
2022/05/22 00:18:06;;;;;;;4.97;3.85;;;;;;;23.52;42.46;94412.53;5091566;28;20197;-81
2022/05/22 00:20:33;;;;;;;4.28;3.67;;;;;;;23.12;42.39;94348.94;5091901;28;20221;-84
2022/05/22 00:23:00;;;;;;;3.70;3.40;;;;;;;23.35;42.55;94388.09;5091734;28;20182;-82
2022/05/22 00:25:26;;;;;;;3.88;3.40;;;;;;;23.48;42.63;94403.56;5091658;28;20193;-83
2022/05/22 00:27:54;;;;;;;5.40;3.75;;;;;;;23.47;42.72;94401.19;5091301;28;20193;-81
2022/05/22 00:30:21;;;;;;;3.90;3.45;;;;;;;23.15;42.52;94348.50;5091710;28;20200;-82
2022/05/22 00:32:48;;;;;;;4.07;2.85;;;;;;;23.22;42.81;94368.22;5090992;28;20596;-81
2022/05/22 00:35:16;;;;;;;4.75;3.58;;;;;;;23.45;42.98;94392.81;5091336;28;20185;-82
2022/05/22 00:37:43;;;;;;;3.80;3.50;;;;;;;23.45;43.03;94390.19;5091296;28;20215;-83
2022/05/22 00:40:10;;;;;;;4.25;3.50;;;;;;;23.33;43.06;94378.94;5091573;28;20208;-83
2022/05/22 00:42:38;;;;;;;4.20;3.50;;;;;;;22.99;43.09;94329.06;5091358;28;20189;-81
2022/05/22 00:45:06;;;;;;;3.72;3.42;;;;;;;23.43;43.06;94403.44;5092503;28;20796;-80
2022/05/22 00:47:33;;;;;;;3.90;3.58;;;;;;;23.42;43.18;94396.63;5091136;28;20618;-78
2022/05/22 00:50:00;;;;;;;3.95;3.55;;;;;;;23.42;43.29;94398.47;5091531;28;20212;-79
2022/05/22 00:52:34;;;;;;;3.60;3.30;;;;;;;23.17;43.35;94362.88;5090743;28;20225;-80
2022/05/22 00:55:06;;;;;;;3.83;3.50;;;;;;;23.38;43.44;94400.72;5090768;28;20557;-81
2022/05/22 00:57:36;;;;;;;4.47;3.50;;;;;;;23.27;43.49;94380.59;5090801;28;20228;-78
2022/05/22 01:00:08;;;;;;;8.43;3.28;;;;;;;23.37;43.46;94393.13;5090820;28;20189;-79
2022/05/22 01:05:16;;;;;;;5.18;3.75;;;;;;;23.34;43.67;94393.56;5091990;28;20276;-80
2022/05/22 01:07:45;;;;;;;4.30;3.40;;;;;;;23.00;43.71;94338.47;5090693;28;20727;-81
2022/05/22 01:10:12;;;;;;;4.43;3.28;;;;;;;23.25;43.76;94378.22;5090961;28;20621;-79
2022/05/22 01:12:42;;;;;;;3.85;3.28;;;;;;;23.31;43.94;94399.22;5090524;28;20240;-81
2022/05/22 01:15:10;;;;;;;3.90;3.50;;;;;;;23.20;44.02;94378.09;5090769;28;20657;-80
2022/05/22 01:17:40;;;;;;;4.43;3.28;;;;;;;23.14;44.11;94373.75;5090333;28;20204;-81
2022/05/22 01:20:08;;;;;;;3.83;3.53;;;;;;;22.96;44.03;94342.53;5090507;28;20284;-81
2022/05/22 01:22:36;;;;;;;4.05;3.58;;;;;;;23.27;44.17;94394.47;5090453;28;20537;-81
2022/05/22 01:25:05;;;;;;;3.35;3.10;;;;;;;23.04;44.14;94360.47;5090566;28;20193;-80
2022/05/22 01:27:33;;;;;;;5.82;3.30;;;;;;;23.26;44.35;94381.63;5090489;28;20194;-83
2022/05/22 01:30:11;;;;;;;3.90;3.58;;;;;;;23.25;44.38;94385.25;5090408;28;20194;-80
2022/05/22 01:32:40;;;;;;;5.57;3.13;;;;;;;23.02;44.13;94362.53;5091622;28;20197;-81
2022/05/22 01:35:08;;;;;;;3.78;3.40;;;;;;;22.54;44.21;94285.16;5095458;28;20611;-82
2022/05/22 01:37:36;;;;;;;4.10;3.25;;;;;;;23.23;44.50;94392.53;5093626;28;20580;-81
2022/05/22 01:40:05;;;;;;;3.53;3.22;;;;;;;22.33;44.51;94262.97;5091624;28;20186;-82
2022/05/22 01:42:32;;;;;;;3.78;3.47;;;;;;;23.20;44.52;94391.16;5091191;28;20235;-80
2022/05/22 01:44:59;;;;;;;3.70;3.10;;;;;;;23.21;44.46;94389.34;5090337;28;20201;-81
2022/05/22 01:47:26;;;;;;;3.55;3.25;;;;;;;23.20;44.46;94395.56;5090670;28;20193;-80
2022/05/22 01:49:53;;;;;;;3.35;3.05;;;;;;;23.08;44.54;94374.66;5090246;28;20196;-80
2022/05/22 01:52:19;;;;;;;4.72;3.85;;;;;;;23.18;44.40;94395.00;5090219;28;20189;-81
2022/05/22 01:54:48;;;;;;;4.80;3.63;;;;;;;23.17;44.54;94393.41;5090214;28;20205;-82
2022/05/22 01:57:14;;;;;;;3.67;3.38;;;;;;;23.16;44.57;94394.44;5090108;28;20193;-81
2022/05/22 01:59:41;;;;;;;6.15;3.30;;;;;;;23.00;44.38;94367.16;5090102;28;20190;-79
2022/05/22 02:02:08;;;;;;;3.30;3.00;;;;;;;23.03;44.33;94369.31;5090248;28;20209;-82
2022/05/22 02:04:35;;;;;;;3.78;3.33;;;;;;;22.57;44.41;94305.53;5095141;28;20189;-81
2022/05/22 02:09:48;;;;;;;3.60;3.10;;;;;;;23.13;44.52;94394.88;5097117;28;20273;-82
2022/05/22 02:12:15;;;;;;;3.40;2.95;;;;;;;22.99;44.38;94379.41;5096998;28;20197;-79
2022/05/22 02:14:42;;;;;;;4.70;3.15;;;;;;;23.11;44.21;94397.72;5098214;28;20185;-79
2022/05/22 02:17:09;;;;;;;4.30;3.03;;;;;;;23.12;44.29;94403.72;5097974;28;20201;-81
2022/05/22 02:19:35;;;;;;;4.00;3.35;;;;;;;22.99;44.05;94392.44;5096842;28;20657;-81
2022/05/22 02:22:02;;;;;;;3.50;3.20;;;;;;;23.01;44.11;94390.44;5097100;28;20209;-79
2022/05/22 02:24:29;;;;;;;3.75;2.85;;;;;;;23.02;44.15;94396.44;5097046;28;20647;-81
2022/05/22 02:26:57;;;;;;;3.80;3.38;;;;;;;23.11;43.83;94409.97;5096842;28;20185;-80
2022/05/22 02:29:24;;;;;;;3.20;2.90;;;;;;;23.09;43.93;94407.56;5097635;28;20186;-83
2022/05/22 02:31:51;;;;;;;5.85;3.00;;;;;;;23.08;43.80;94411.19;5110142;28;20194;-82
2022/05/22 02:34:18;;;;;;;3.22;2.95;;;;;;;23.00;43.90;94398.44;5099112;28;20221;-81
2022/05/22 02:36:45;;;;;;;3.08;2.75;;;;;;;22.80;43.80;94375.25;5096647;28;20200;-82
2022/05/22 02:39:12;;;;;;;3.33;3.03;;;;;;;22.91;43.77;94392.75;5096743;28;20615;-79
2022/05/22 02:41:39;;;;;;;3.92;3.00;;;;;;;22.73;43.68;94362.28;5096350;28;20225;-79
2022/05/22 02:44:07;;;;;;;3.05;2.53;;;;;;;22.96;43.71;94394.69;5096667;28;20190;-82
2022/05/22 02:46:34;;;;;;;3.83;3.53;;;;;;;23.01;43.61;94402.66;5096318;28;20194;-82
2022/05/22 02:49:01;;;;;;;3.13;2.67;;;;;;;23.02;43.49;94406.88;5096326;28;20676;-79
2022/05/22 02:51:27;;;;;;;2.92;2.63;;;;;;;23.00;43.37;94411.50;5095906;28;20188;-80
2022/05/22 02:53:54;;;;;;;3.20;3.00;;;;;;;22.99;43.31;94423.75;5096398;28;20189;-82
2022/05/22 02:56:24;;;;;;;4.85;2.53;;;;;;;22.85;43.44;94392.81;5096432;28;20189;-79
2022/05/22 02:58:51;;;;;;;3.20;2.88;;;;;;;22.81;43.39;94389.06;5096655;28;20185;-81
2022/05/22 03:01:19;;;;;;;6.72;3.00;;;;;;;22.99;43.29;94420.34;5096189;28;20381;-80
2022/05/22 03:03:46;;;;;;;3.58;2.50;;;;;;;22.97;43.15;94423.19;5096224;28;20186;-78
2022/05/22 03:08:58;;;;;;;2.45;2.25;;;;;;;22.97;42.99;94424.97;5096564;28;20208;-82
2022/05/22 03:11:25;;;;;;;3.35;2.40;;;;;;;22.96;42.87;94431.22;5097162;28;20212;-83
2022/05/22 03:13:52;;;;;;;2.70;2.50;;;;;;;22.83;42.89;94408.66;5098598;28;20273;-82
2022/05/22 03:16:20;;;;;;;3.40;2.42;;;;;;;22.95;42.62;94433.03;5093304;28;20641;-79
2022/05/22 03:18:47;;;;;;;2.30;2.20;;;;;;;22.83;42.55;94418.31;5094132;28;20189;-82
2022/05/22 03:21:14;;;;;;;2.72;2.53;;;;;;;22.96;42.56;94441.63;5093312;28;20190;-80
2022/05/22 03:23:41;;;;;;;2.67;2.35;;;;;;;22.95;42.36;94438.25;5092858;28;20189;-80
2022/05/22 03:26:09;;;;;;;2.70;2.50;;;;;;;22.84;42.37;94414.69;5092844;28;20197;-80
2022/05/22 03:28:36;;;;;;;3.15;2.40;;;;;;;22.88;42.28;94424.44;5092456;28;20189;-80
2022/05/22 03:31:03;;;;;;;2.50;2.30;;;;;;;22.88;42.15;94421.06;5092691;28;20193;-80
2022/05/22 03:33:31;;;;;;;2.45;2.22;;;;;;;22.96;42.17;94434.59;5092169;28;20236;-82
2022/05/22 03:35:58;;;;;;;4.85;2.10;;;;;;;22.97;42.01;94436.22;5092951;28;20200;-80
2022/05/22 03:38:25;;;;;;;2.60;2.40;;;;;;;22.87;41.89;94416.84;5092186;28;20190;-79
2022/05/22 03:40:53;;;;;;;2.77;2.57;;;;;;;23.00;41.85;94443.59;5092705;28;20190;-79
2022/05/22 03:43:19;;;;;;;2.08;1.95;;;;;;;23.03;41.64;94448.38;5092144;28;20708;-80
2022/05/22 03:45:46;;;;;;;2.53;2.33;;;;;;;22.94;41.40;94423.63;5092922;28;20182;-80
2022/05/22 03:48:13;;;;;;;4.28;2.38;;;;;;;22.94;41.51;94428.03;5093048;28;20190;-80
2022/05/22 03:50:42;;;;;;;2.30;2.13;;;;;;;23.04;41.46;94441.34;5093111;28;20212;-79
2022/05/22 03:53:08;;;;;;;3.90;2.78;;;;;;;23.13;41.40;94452.25;5092289;28;20631;-80
2022/05/22 03:55:35;;;;;;;3.30;2.15;;;;;;;22.62;41.26;94362.22;5092180;28;20198;-81
2022/05/22 03:58:02;;;;;;;2.55;2.35;;;;;;;22.45;41.23;94328.97;5092291;28;20557;-81
2022/05/22 04:00:29;;;;;;;2.65;2.00;;;;;;;23.22;41.15;94443.09;5091800;28;20224;-80
2022/05/22 04:02:56;;;;;;;2.47;2.30;;;;;;;23.14;40.85;94423.34;5092586;28;20224;-80
2022/05/22 04:05:23;;;;;;;2.38;2.17;;;;;;;23.21;40.94;94429.25;5091681;28;20197;-79
2022/05/22 04:07:51;;;;;;;2.03;1.92;;;;;;;22.82;40.81;94369.78;5093349;28;20196;-79
2022/05/22 04:10:20;;;;;;;3.67;2.20;;;;;;;23.21;40.74;94421.44;5091927;28;20193;-81
2022/05/22 04:12:47;;;;;;;2.95;2.03;;;;;;;23.29;40.70;94436.00;5091894;28;20568;-81
2022/05/22 04:15:18;;;;;;;2.75;2.15;;;;;;;23.06;40.48;94394.16;5091574;28;20189;-83
2022/05/22 04:17:45;;;;;;;5.53;2.20;;;;;;;23.28;40.73;94432.59;5091903;28;20190;-81
2022/05/22 04:20:12;;;;;;;2.40;2.20;;;;;;;23.42;40.59;94451.44;5091909;28;20193;-83
2022/05/22 04:25:11;;;;;;;2.40;2.10;;;;;;;23.44;40.69;94449.41;5092035;28;20712;-85
2022/05/22 04:25:27;;;;;;;6.72;2.22;;;;;;;23.02;40.62;94388.59;5091324;28;20298;-85
2022/05/22 04:27:54;;;;;;;2.90;2.10;;;;;;;23.17;40.89;94412.47;5090769;28;20246;-85
2022/05/22 04:30:22;;;;;;;3.67;1.77;;;;;;;22.59;40.67;94318.38;5091423;28;20194;-84
2022/05/22 04:32:50;;;;;;;3.15;2.10;;;;;;;23.50;41.00;94452.97;5091983;28;20193;-81
2022/05/22 04:35:18;;;;;;;4.40;2.00;;;;;;;23.44;40.97;94446.78;5091882;28;20627;-82
2022/05/22 04:37:45;;;;;;;2.10;1.90;;;;;;;23.53;40.87;94458.53;5091578;28;20202;-82
2022/05/22 04:40:14;;;;;;;2.30;1.90;;;;;;;23.54;40.84;94454.88;5091767;28;20200;-82
2022/05/22 04:42:42;;;;;;;2.88;2.10;;;;;;;23.21;40.78;94405.78;5091758;28;20228;-83
2022/05/22 04:45:11;;;;;;;2.60;1.80;;;;;;;23.57;40.84;94460.66;5097241;28;20182;-82
2022/05/22 04:47:40;;;;;;;2.70;2.03;;;;;;;23.44;40.76;94438.16;5095336;28;20243;-79
2022/05/22 04:50:08;;;;;;;6.13;2.00;;;;;;;23.58;40.59;94463.06;5091170;28;20194;-81
2022/05/22 04:52:35;;;;;;;4.97;1.88;;;;;;;23.59;40.72;94462.06;5091128;28;20190;-80
2022/05/22 04:55:02;;;;;;;3.13;2.10;;;;;;;23.26;40.57;94400.69;5091219;28;20285;-82
2022/05/22 04:57:29;;;;;;;7.63;2.17;;;;;;;23.63;40.70;94457.97;5092684;28;20194;-80
2022/05/22 04:59:57;;;;;;;5.20;2.05;;;;;;;23.68;40.70;94457.34;5091445;28;20190;-83
2022/05/22 05:02:25;;;;;;;5.20;2.15;;;;;;;23.15;40.53;94364.16;5091763;28;20231;-78
2022/05/22 05:04:53;;;;;;;2.35;1.95;;;;;;;23.78;40.69;94455.75;5092859;28;20189;-79
2022/05/22 05:07:21;;;;;;;2.42;1.95;;;;;;;23.87;40.54;94463.25;5093413;28;20186;-79
2022/05/22 05:09:48;;;;;;;3.53;2.17;;;;;;;23.94;40.67;94462.13;5095137;28;20189;-78
2022/05/22 05:12:16;;;;;;;1.75;1.65;;;;;;;24.02;40.68;94458.41;5091265;28;20190;-80
2022/05/22 05:14:43;;;;;;;4.28;2.00;;;;;;;24.12;40.88;94456.00;5091597;28;20623;-80
2022/05/22 05:17:15;;;;;;;2.33;2.13;;;;;;;24.19;40.69;94467.16;5091759;28;20197;-80
2022/05/22 05:19:42;;;;;;;2.65;1.73;;;;;;;24.15;40.76;94446.94;5091823;28;20581;-80
2022/05/22 05:22:09;;;;;;;1.70;1.60;;;;;;;24.34;40.52;94463.25;5090786;28;20225;-80
2022/05/22 05:24:36;;;;;;;3.38;2.00;;;;;;;24.39;40.46;94468.63;5091486;28;20188;-78
2022/05/22 05:27:03;;;;;;;1.70;1.60;;;;;;;24.44;40.60;94466.16;5091486;28;20190;-80
2022/05/22 05:29:30;;;;;;;4.45;1.90;;;;;;;24.24;40.34;94433.28;5092693;28;20200;-80
2022/05/22 05:31:57;;;;;;;2.00;1.90;;;;;;;24.51;40.59;94467.59;5092383;28;20265;-81
2022/05/22 05:34:25;;;;;;;2.05;1.80;;;;;;;24.56;40.41;94471.34;5092411;28;20240;-80
2022/05/22 05:36:52;;;;;;;2.65;2.03;;;;;;;24.59;40.47;94474.28;5092966;28;20292;-81
2022/05/22 05:39:19;;;;;;;2.05;1.75;;;;;;;24.63;40.38;94475.44;5091900;28;20182;-82
2022/05/22 05:41:46;;;;;;;5.65;2.10;;;;;;;24.67;40.45;94470.53;5090763;28;20207;-80
2022/05/22 05:44:13;;;;;;;4.20;1.77;;;;;;;24.71;40.32;94469.84;5091413;28;20220;-81
2022/05/22 05:46:40;;;;;;;2.47;2.28;;;;;;;24.76;40.07;94474.38;5091288;28;20228;-81
2022/05/22 05:49:08;;;;;;;2.05;1.85;;;;;;;24.23;40.30;94386.47;5090763;28;20189;-83
2022/05/22 05:51:37;;;;;;;1.73;1.63;;;;;;;24.84;40.03;94474.03;5090525;28;20189;-84
2022/05/22 05:54:04;;;;;;;2.92;2.03;;;;;;;24.88;40.18;94483.00;5090106;28;20580;-79
2022/05/22 05:56:31;;;;;;;2.22;2.03;;;;;;;24.91;40.22;94477.28;5090840;28;20668;-80
2022/05/22 05:58:58;;;;;;;2.15;1.95;;;;;;;24.88;39.86;94469.13;5091990;28;20599;-81
2022/05/22 06:01:26;;;;;;;1.77;1.67;;;;;;;24.89;39.72;94471.50;5092602;28;20217;-82
2022/05/22 06:03:53;;;;;;;2.30;1.98;;;;;;;24.75;39.43;94451.88;5090555;28;20232;-84
2022/05/22 06:06:21;;;;;;;3.75;2.13;;;;;;;24.87;39.77;94468.34;5090482;28;20186;-81
2022/05/22 06:08:49;;;;;;;2.03;1.83;;;;;;;25.01;39.38;94487.97;5090102;28;20190;-84
2022/05/22 06:11:16;;;;;;;2.00;1.90;;;;;;;25.02;39.34;94486.94;5090615;28;20205;-80
2022/05/22 06:13:43;;;;;;;2.13;1.85;;;;;;;25.04;39.37;94497.16;5089922;28;20677;-84
2022/05/22 06:16:10;;;;;;;5.18;1.90;;;;;;;24.61;39.44;94417.34;5089675;28;20197;-82
2022/05/22 06:18:37;;;;;;;2.28;1.83;;;;;;;25.07;39.35;94486.25;5090193;28;20613;-82
2022/05/22 06:21:09;;;;;;;5.53;1.90;;;;;;;25.10;39.14;94495.47;5090092;28;20190;-81
2022/05/22 06:23:38;;;;;;;1.80;1.70;;;;;;;24.42;39.03;94389.75;5089736;28;20712;-82
2022/05/22 06:26:06;;;;;;;3.42;1.90;;;;;;;25.12;39.07;94488.97;5089931;28;20280;-83
2022/05/22 06:28:33;;;;;;;2.45;1.95;;;;;;;25.05;38.91;94479.66;5089620;28;20200;-80
2022/05/22 06:31:01;;;;;;;1.98;1.88;;;;;;;25.16;38.99;94478.84;5089804;28;20205;-80
2022/05/22 06:33:28;;;;;;;1.75;1.65;;;;;;;25.17;38.92;94483.03;5089669;28;20800;-80
2022/05/22 06:35:55;;;;;;;1.88;1.73;;;;;;;25.17;38.92;94483.88;5089528;28;20620;-78
2022/05/22 06:41:08;;;;;;;4.70;2.25;;;;;;;25.22;38.87;94483.16;5089832;28;20207;-80
2022/05/22 06:43:34;;;;;;;10.02;1.90;;;;;;;24.81;38.68;94409.09;5089475;28;20206;-80
2022/05/22 06:46:02;;;;;;;2.60;2.03;;;;;;;25.35;38.71;94482.09;5089865;28;20250;-79
2022/05/22 06:48:28;;;;;;;6.82;1.92;;;;;;;25.45;38.51;94477.81;5090109;28;20190;-84
2022/05/22 06:50:56;;;;;;;3.30;1.98;;;;;;;25.53;38.75;94481.88;5090609;28;20193;-80
2022/05/22 06:53:23;;;;;;;4.20;1.83;;;;;;;25.24;38.81;94420.88;5093703;28;20231;-79
2022/05/22 06:55:50;;;;;;;3.22;1.58;;;;;;;25.46;38.44;94436.69;5093265;28;20182;-80
2022/05/22 06:58:18;;;;;;;1.90;1.70;;;;;;;25.79;38.64;94474.47;5093315;28;20200;-81
2022/05/22 07:00:45;;;;;;;1.75;1.65;;;;;;;25.65;38.46;94438.09;5093000;28;20194;-81
2022/05/22 07:03:12;;;;;;;1.70;1.60;;;;;;;26.07;38.49;94481.44;5093486;28;20700;-81
2022/05/22 07:05:39;;;;;;;2.70;1.60;;;;;;;26.24;38.31;94479.63;5093075;28;20190;-80
2022/05/22 07:08:06;;;;;;;2.83;1.75;;;;;;;26.42;38.60;94478.56;5093235;28;20201;-79
2022/05/22 07:13:19;;;;;;;5.00;1.90;;;;;;;26.81;38.79;94470.69;5093250;28;20262;-78
2022/05/22 07:15:46;;;;;;;3.50;1.88;;;;;;;27.05;39.13;94471.25;5093742;28;20190;-81
2022/05/22 07:18:13;;;;;;;1.75;1.65;;;;;;;27.33;39.34;94465.81;5094259;28;21035;-81
2022/05/22 07:20:40;;;;;;;2.00;1.60;;;;;;;27.44;38.96;94427.28;5093140;28;20190;-81
2022/05/22 07:23:07;;;;;;;2.50;2.15;;;;;;;27.52;38.59;94396.09;5093711;28;20225;-81
2022/05/22 07:25:34;;;;;;;2.70;1.58;;;;;;;28.28;38.10;94466.06;5093106;28;20193;-80
2022/05/22 07:28:03;;;;;;;2.17;1.65;;;;;;;28.56;37.60;94470.22;5092576;28;20205;-79
2022/05/22 07:30:33;;;;;;;3.22;1.73;;;;;;;28.80;36.79;94472.41;5092846;28;20186;-81
2022/05/22 07:33:00;;;;;;;2.88;1.75;;;;;;;28.98;36.45;94464.91;5092218;28;20247;-79
2022/05/22 07:35:27;;;;;;;1.60;1.50;;;;;;;29.16;36.37;94481.28;5092756;28;20608;-80
2022/05/22 07:37:54;;;;;;;1.83;1.73;;;;;;;29.12;35.82;94451.25;5092998;28;20182;-82
2022/05/22 07:40:20;;;;;;;3.00;1.45;;;;;;;29.41;35.18;94476.09;5092685;28;20695;-84
2022/05/22 07:42:47;;;;;;;1.70;1.60;;;;;;;29.52;34.85;94474.25;5092598;28;20217;-83
2022/05/22 07:45:15;;;;;;;4.00;1.90;;;;;;;29.59;34.50;94466.13;5106902;28;20194;-82
2022/05/22 07:47:44;;;;;;;2.50;1.75;;;;;;;29.74;34.69;94469.56;5098588;28;20681;-82
2022/05/22 07:50:21;;;;;;;2.60;1.50;;;;;;;29.86;34.12;94463.25;5092756;28;20190;-82
2022/05/22 07:52:50;;;;;;;2.50;1.73;;;;;;;29.85;34.09;94446.63;5092094;28;20628;-80
2022/05/22 07:55:18;;;;;;;5.55;2.10;;;;;;;30.04;34.18;94451.38;5092910;28;20200;-81
2022/05/22 07:57:47;;;;;;;2.33;2.13;;;;;;;29.97;34.17;94436.63;5096333;28;20193;-80
2022/05/22 08:00:16;;;;;;;2.03;1.83;;;;;;;30.09;34.15;94451.34;5092665;28;20641;-81
2022/05/22 08:02:45;;;;;;;3.67;2.30;;;;;;;29.93;33.80;94425.00;5091462;28;20188;-83
2022/05/22 08:05:13;;;;;;;2.03;1.80;;;;;;;30.10;34.26;94440.56;5092035;28;20634;-84
2022/05/22 08:07:40;;;;;;;3.08;1.77;;;;;;;29.90;33.85;94408.94;5091660;28;20182;-81
2022/05/22 08:10:09;;;;;;;1.92;1.80;;;;;;;30.10;34.23;94437.13;5092060;28;20192;-81
2022/05/22 08:12:37;;;;;;;3.13;2.05;;;;;;;30.07;34.09;94430.53;5091946;28;20189;-79
2022/05/22 08:15:06;;;;;;;3.58;1.80;;;;;;;30.02;34.18;94424.47;5092066;28;20247;-80
2022/05/22 08:17:36;;;;;;;1.90;1.80;;;;;;;29.94;34.31;94423.94;5092493;28;20205;-79
2022/05/22 08:20:05;;;;;;;3.47;1.88;;;;;;;29.06;34.18;94302.16;5092544;28;20194;-79
2022/05/22 08:22:31;;;;;;;2.17;1.60;;;;;;;29.54;34.25;94385.19;5092054;28;20190;-79
2022/05/22 08:24:58;;;;;;;3.28;1.88;;;;;;;29.60;34.42;94396.56;5091544;28;20186;-82
2022/05/22 08:27:25;;;;;;;1.77;1.65;;;;;;;29.70;34.15;94409.72;5091700;28;20186;-80
2022/05/22 08:29:52;;;;;;;4.70;1.80;;;;;;;29.74;34.14;94405.50;5091145;28;20239;-81
2022/05/22 08:32:19;;;;;;;7.32;1.88;;;;;;;29.79;34.26;94408.13;5091820;28;20186;-79
2022/05/22 08:34:46;;;;;;;2.17;1.88;;;;;;;29.86;35.02;94406.03;5091702;28;20270;-79
2022/05/22 08:37:14;;;;;;;3.83;2.20;;;;;;;29.97;34.76;94404.97;5092034;28;20193;-79
2022/05/22 08:39:41;;;;;;;1.92;1.83;;;;;;;30.09;34.66;94399.38;5091397;28;20200;-79
2022/05/22 08:42:10;;;;;;;6.75;2.28;;;;;;;29.72;34.65;94331.19;5091415;28;20189;-78
2022/05/22 08:44:38;;;;;;;3.38;2.17;;;;;;;29.63;34.84;94307.19;5090986;28;20219;-79
2022/05/22 08:47:13;;;;;;;5.70;1.90;;;;;;;30.36;34.38;94403.59;5091195;28;20197;-79
2022/05/22 08:49:46;;;;;;;3.38;1.80;;;;;;;30.38;34.66;94404.13;5091100;28;20678;-79
2022/05/22 08:52:23;;;;;;;2.20;2.00;;;;;;;30.38;34.36;94407.53;5091568;28;20208;-79
2022/05/22 08:54:55;;;;;;;5.20;2.13;;;;;;;30.38;34.40;94404.13;5091004;28;20208;-80
2022/05/22 09:00:11;;;;;;;3.67;2.00;;;;;;;30.28;34.39;94410.22;5090769;28;20184;-78
2022/05/22 09:02:47;;;;;;;4.00;1.77;;;;;;;30.21;34.61;94410.47;5091079;28;20201;-78
2022/05/22 09:05:17;;;;;;;3.10;1.80;;;;;;;29.89;34.64;94373.06;5090965;28;20193;-78
2022/05/22 09:07:54;;;;;;;3.92;2.20;;;;;;;30.05;34.68;94410.75;5091047;28;20201;-80
2022/05/22 09:10:26;;;;;;;3.47;1.92;;;;;;;29.89;34.66;94400.22;5091060;28;20653;-79
2022/05/22 09:13:04;;;;;;;4.22;1.80;;;;;;;29.82;35.01;94406.81;5090055;28;20185;-78
2022/05/22 09:15:39;;;;;;;2.83;2.08;;;;;;;29.34;34.66;94356.19;5090860;28;20653;-78
2022/05/22 09:18:15;;;;;;;3.33;1.92;;;;;;;29.68;34.81;94410.00;5091255;28;20652;-78
2022/05/22 09:20:51;;;;;;;2.00;1.83;;;;;;;29.60;34.62;94413.16;5090958;28;20193;-79
2022/05/22 09:23:31;;;;;;;5.15;2.22;;;;;;;29.54;34.91;94405.50;5090624;28;20225;-80
2022/05/22 09:26:06;;;;;;;2.28;2.08;;;;;;;29.48;35.31;94396.78;5090727;28;20189;-78
2022/05/22 09:28:46;;;;;;;2.33;2.03;;;;;;;29.43;35.04;94394.94;5090650;28;20196;-79
2022/05/22 09:31:23;;;;;;;2.53;1.90;;;;;;;29.34;35.08;94380.69;5090699;28;20182;-78
2022/05/22 09:34:01;;;;;;;2.70;2.05;;;;;;;29.43;35.63;94391.50;5090430;28;20312;-81
2022/05/22 09:36:35;;;;;;;2.50;2.30;;;;;;;29.44;35.30;94390.44;5090748;28;20188;-80
2022/05/22 09:39:22;;;;;;;2.08;1.90;;;;;;;29.40;35.09;94374.38;5090455;28;20204;-82
2022/05/22 09:42:01;;;;;;;2.10;1.90;;;;;;;29.26;35.34;94352.22;5091499;28;20687;-81
2022/05/22 09:44:57;;;;;;;2.42;1.95;;;;;;;29.21;35.39;94334.59;5091921;28;20220;-82
2022/05/22 09:47:54;;;;;;;2.38;1.83;;;;;;;29.36;35.25;94357.53;5090336;28;20189;-83
2022/05/22 09:50:28;;;;;;;4.00;1.80;;;;;;;29.39;35.28;94349.06;5027736;28;20271;-81
2022/05/22 09:53:03;;;;;;;2.60;2.00;;;;;;;29.60;35.34;94365.72;5028034;28;20199;-81
2022/05/22 09:55:43;;;;;;;1.98;1.88;;;;;;;29.39;35.20;94320.09;5027676;28;20195;-80
2022/05/22 09:58:27;;;;;;;2.88;2.42;;;;;;;29.54;34.99;94327.22;5028845;28;20667;-79
2022/05/22 10:01:00;;;;;;;7.50;1.85;;;;;;;29.61;35.25;94311.16;5028484;28;20195;-80
2022/05/22 10:03:38;;;;;;;2.53;1.92;;;;;;;29.97;34.73;94352.22;5027430;28;20683;-83
2022/05/22 10:06:13;;;;;;;1.60;1.50;;;;;;;29.85;34.99;94314.81;5027601;28;20199;-78
2022/05/22 10:08:50;;;;;;;1.70;1.60;;;;;;;29.87;35.06;94296.84;5028869;28;20195;-82
2022/05/22 10:11:24;;;;;;;1.70;1.60;;;;;;;30.29;34.53;94337.13;5028118;28;20198;-81
2022/05/22 10:14:04;;;;;;;1.70;1.55;;;;;;;30.20;34.54;94299.97;5032946;28;20202;-79
2022/05/22 10:16:43;;;;;;;5.75;1.90;;;;;;;30.29;34.17;94300.97;5027673;28;20641;-78
2022/05/22 10:19:23;;;;;;;2.28;1.55;;;;;;;30.59;34.08;94329.06;5028103;28;20303;-80
2022/05/22 10:22:01;;;;;;;2.55;1.58;;;;;;;30.52;33.78;94294.25;5036272;28;20191;-79
2022/05/22 10:24:46;;;;;;;1.65;1.55;;;;;;;30.82;34.08;94324.22;5035205;28;20737;-79
2022/05/22 10:27:29;;;;;;;2.03;1.58;;;;;;;30.92;34.01;94322.31;5055356;28;20186;-81
2022/05/22 10:30:00;;;;;;;4.75;1.67;;;;;;;31.02;33.49;94316.19;5094117;28;20196;-81
2022/05/22 10:32:32;;;;;;;3.15;1.73;;;;;;;30.90;33.48;94284.03;5094485;28;20178;-78
2022/05/22 10:35:06;;;;;;;3.05;1.70;;;;;;;31.20;33.56;94318.16;5094908;28;20194;-82
2022/05/22 10:37:39;;;;;;;1.73;1.63;;;;;;;31.28;33.58;94310.72;5095237;28;20194;-80
2022/05/22 10:40:08;;;;;;;2.40;1.80;;;;;;;31.22;33.36;94286.19;5094563;28;20189;-79
2022/05/22 10:42:46;;;;;;;1.88;1.70;;;;;;;31.36;33.17;94297.72;5095471;28;20659;-79
2022/05/22 10:45:21;;;;;;;1.80;1.70;;;;;;;31.50;33.21;94313.72;5095220;28;20223;-79
2022/05/22 10:47:48;;;;;;;1.50;1.40;;;;;;;30.79;33.15;94198.84;5096107;28;20282;-79
2022/05/22 10:50:22;;;;;;;4.15;1.70;;;;;;;31.29;33.16;94254.19;5096356;28;20201;-80
2022/05/22 10:52:49;;;;;;;3.03;1.40;;;;;;;31.70;32.97;94312.75;5095544;28;20200;-79
2022/05/22 10:55:22;;;;;;;3.88;1.88;;;;;;;31.55;32.88;94273.22;5093894;28;20189;-80
2022/05/22 10:57:59;;;;;;;3.58;1.80;;;;;;;31.77;32.52;94299.97;5094693;28;20206;-81
2022/05/22 11:00:27;;;;;;;3.85;1.60;;;;;;;31.77;32.69;94299.97;5093814;28;20194;-81
2022/05/22 11:02:54;;;;;;;2.42;1.90;;;;;;;31.38;32.46;94242.72;5093493;28;20190;-82
2022/05/22 11:05:25;;;;;;;2.63;1.90;;;;;;;31.65;32.43;94281.88;5094101;28;20225;-79
2022/05/22 11:07:56;;;;;;;2.55;1.80;;;;;;;31.77;32.16;94307.91;5097428;28;20184;-82
2022/05/22 11:10:25;;;;;;;1.90;1.70;;;;;;;31.10;32.61;94188.00;5097488;28;20722;-81
2022/05/22 11:13:05;;;;;;;2.97;1.95;;;;;;;31.83;32.47;94287.50;5093126;28;20196;-78
2022/05/22 11:15:34;;;;;;;3.88;1.85;;;;;;;31.84;32.25;94281.97;5093017;28;20583;-79
2022/05/22 11:18:07;;;;;;;2.15;1.60;;;;;;;31.85;32.64;94272.94;5094739;28;20189;-80
2022/05/22 11:20:35;;;;;;;1.60;1.50;;;;;;;31.77;32.36;94251.59;5097043;28;20546;-79
2022/05/22 11:23:11;;;;;;;2.60;1.92;;;;;;;31.98;32.64;94285.50;5093594;28;20204;-78
2022/05/22 11:25:48;;;;;;;3.22;1.77;;;;;;;32.08;32.71;94294.38;5092874;28;20311;-79
2022/05/22 11:28:42;;;;;;;3.30;1.90;;;;;;;32.09;32.65;94288.03;5093347;28;20193;-82
2022/05/22 11:31:25;;;;;;;2.47;2.00;;;;;;;32.05;32.29;94276.44;5090741;28;20194;-80
2022/05/22 11:34:05;;;;;;;1.80;1.60;;;;;;;32.00;32.63;94279.16;5092329;28;20238;-82
2022/05/22 11:36:47;;;;;;;2.25;1.90;;;;;;;31.51;32.42;94206.91;5092187;28;20563;-80
2022/05/22 11:39:36;;;;;;;2.75;2.05;;;;;;;31.97;32.75;94275.19;5093012;28;20189;-82
2022/05/22 11:42:17;;;;;;;2.63;1.67;;;;;;;31.96;32.54;94273.63;5092541;28;20560;-83
2022/05/22 11:45:01;;;;;;;2.47;2.05;;;;;;;31.82;32.63;94251.53;5092562;28;20226;-80
2022/05/22 11:47:52;;;;;;;2.65;2.00;;;;;;;31.90;32.29;94264.16;5092807;28;20193;-82
2022/05/22 11:50:34;;;;;;;2.70;1.65;;;;;;;31.87;32.04;94275.31;5079535;28;20271;-83
2022/05/22 11:53:17;;;;;;;2.80;1.90;;;;;;;31.83;32.47;94279.56;5092273;28;20193;-79
2022/05/22 11:55:56;;;;;;;4.18;2.25;;;;;;;31.14;32.24;94187.16;5092518;28;20572;-79
2022/05/22 11:58:32;;;;;;;2.97;1.80;;;;;;;31.70;31.88;94288.97;5092764;28;20193;-80
2022/05/22 12:01:11;;;;;;;3.17;1.60;;;;;;;31.61;32.00;94288.78;5092177;28;20656;-83
2022/05/22 12:04:19;;;;;;;4.05;2.17;;;;;;;31.50;32.17;94286.50;5092010;28;20193;-83